createdAt,value
2024-04-18T00:05:19.904Z,37.1596
2024-04-18T00:15:40.875Z,37.1543
2024-04-18T00:26:01.781Z,37.1408
2024-04-18T00:36:22.807Z,37.1400
2024-04-18T00:46:43.700Z,37.1400
2024-04-18T00:57:04.624Z,37.1388
2024-04-18T01:07:25.447Z,37.1314
2024-04-18T01:17:46.164Z,37.1300
2024-04-18T01:27:55.026Z,37.1300
2024-04-18T01:38:16.037Z,37.1288
2024-04-18T01:48:36.716Z,37.1210
2024-04-18T01:58:57.304Z,37.1190
2024-04-18T02:09:17.938Z,37.0992
2024-04-18T02:19:38.391Z,37.1071
2024-04-18T02:29:59.099Z,37.0900
2024-04-18T02:40:19.819Z,37.0900
2024-04-18T02:50:40.329Z,37.0900
2024-04-18T03:01:01.033Z,37.1078
2024-04-18T03:11:21.751Z,37.1200
2024-04-18T03:21:42.155Z,37.1202
2024-04-18T03:32:02.920Z,37.1235
2024-04-18T03:42:23.098Z,37.1300
2024-04-18T03:52:43.351Z,37.1363
2024-04-18T04:03:03.154Z,37.1480
2024-04-18T04:13:22.600Z,37.1588
2024-04-18T04:23:42.208Z,37.1653
2024-04-18T04:34:01.681Z,37.1702
2024-04-18T04:44:21.223Z,37.1788
2024-04-18T04:54:40.628Z,37.2031
2024-04-18T05:05:00.339Z,37.2292
2024-04-18T05:15:20.096Z,37.2539
2024-04-18T05:25:40.276Z,37.2741
2024-04-18T05:36:00.634Z,37.3076
2024-04-18T05:46:20.866Z,37.3541
2024-04-18T05:56:41.101Z,37.4124
2024-04-18T06:07:01.626Z,37.4831
2024-04-18T06:17:21.628Z,37.5404
2024-04-18T06:27:41.929Z,37.5847
2024-04-18T06:38:02.019Z,37.6259
2024-04-18T06:48:22.201Z,37.6488
2024-04-18T06:58:42.265Z,37.6747
2024-04-18T07:09:02.824Z,37.7065
2024-04-18T07:19:23.103Z,37.7265
2024-04-18T07:29:44.049Z,37.7469
2024-04-18T07:39:52.804Z,37.7690
2024-04-18T07:50:12.544Z,37.7804
2024-04-18T08:00:34.843Z,37.8108
2024-04-18T08:11:00.178Z,37.8300
2024-04-18T08:20:56.447Z,37.8462
2024-04-18T08:31:16.868Z,37.8690
2024-04-18T08:41:40.191Z,37.9016
2024-04-18T08:51:50.521Z,37.9519
2024-04-18T09:02:10.921Z,38.0088
2024-04-18T09:12:31.120Z,38.1580
2024-04-18T09:22:50.975Z,38.3337
2024-04-18T09:33:11.007Z,38.4698
2024-04-18T09:43:30.719Z,38.5771
2024-04-18T09:53:50.782Z,38.6241
2024-04-18T10:03:59.552Z,38.6398
2024-04-18T10:14:19.657Z,38.6859
2024-04-18T10:24:39.910Z,38.7539
2024-04-18T10:34:59.987Z,38.7710
2024-04-18T10:45:20.496Z,38.7741
2024-04-18T10:55:40.652Z,38.7808
2024-04-18T11:06:00.942Z,38.7824
2024-04-18T11:16:21.824Z,38.7867
2024-04-18T11:26:42.468Z,38.8108
2024-04-18T11:37:02.478Z,38.8212
2024-04-18T11:47:22.787Z,38.8245
2024-04-18T11:57:43.604Z,38.8196
2024-04-18T12:08:03.746Z,38.8202
2024-04-18T12:18:24.484Z,38.8235
2024-04-18T12:28:44.339Z,38.8280
2024-04-18T12:39:07.013Z,38.8306
2024-04-18T12:49:15.552Z,38.8300
2024-04-18T12:59:36.397Z,38.8325
2024-04-18T13:09:57.965Z,38.8398
2024-04-18T13:20:05.911Z,38.8515
2024-04-18T13:30:26.450Z,38.8553
2024-04-18T13:40:35.308Z,38.8556
2024-04-18T13:50:55.395Z,38.8571
2024-04-18T14:01:15.903Z,38.8545
2024-04-18T14:11:36.108Z,38.8535
2024-04-18T14:21:56.339Z,38.8559
2024-04-18T14:32:16.754Z,38.8584
2024-04-18T14:42:37.647Z,38.8571
2024-04-18T14:52:58.414Z,38.8602
2024-04-18T15:03:18.611Z,38.8616
2024-04-18T15:13:39.174Z,38.8680
2024-04-18T15:23:59.545Z,38.8663
2024-04-18T15:34:20.212Z,38.8659
2024-04-18T15:44:40.810Z,38.8680
2024-04-18T15:55:09.092Z,38.8482
2024-04-18T16:05:14.656Z,38.9192
2024-04-18T16:15:35.144Z,38.9053
2024-04-18T16:25:55.379Z,38.8529
2024-04-18T16:36:27.592Z,38.8284
2024-04-18T16:46:29.437Z,38.8277
2024-04-18T16:56:49.658Z,38.8322
2024-04-18T17:07:10.691Z,38.8318
2024-04-18T17:17:31.280Z,38.8386
2024-04-18T17:27:52.174Z,38.8349
2024-04-18T17:38:12.503Z,38.8510
2024-04-18T17:48:33.428Z,38.8584
2024-04-18T17:58:54.109Z,38.8549
2024-04-18T18:09:14.438Z,38.8510
2024-04-18T18:19:34.505Z,38.8500
2024-04-18T18:29:54.355Z,38.8520
2024-04-18T18:40:14.839Z,38.8631
2024-04-18T18:50:34.917Z,38.8608
2024-04-18T19:00:44.879Z,38.8563
2024-04-18T19:11:05.657Z,38.8594
2024-04-18T19:21:25.877Z,38.8592
2024-04-18T19:31:46.346Z,38.8618
2024-04-18T19:42:06.583Z,38.8620
2024-04-18T19:52:26.704Z,38.8633
2024-04-18T20:02:47.432Z,38.8702
2024-04-18T20:13:07.238Z,38.8718
2024-04-18T20:23:27.510Z,38.8773
2024-04-18T20:33:47.266Z,38.8837
2024-04-18T20:44:07.340Z,38.8918
2024-04-18T20:54:27.688Z,38.8996
2024-04-18T21:04:48.280Z,38.8992
2024-04-18T21:15:08.895Z,38.9025
2024-04-18T21:25:29.552Z,38.9180
2024-04-18T21:35:50.356Z,38.9167
2024-04-18T21:46:10.609Z,38.9265
2024-04-18T21:56:31.147Z,38.9331
2024-04-18T22:06:51.521Z,38.9314
2024-04-18T22:17:11.774Z,38.9398
2024-04-18T22:27:32.214Z,38.9339
2024-04-18T22:37:52.933Z,38.9337
2024-04-18T22:48:13.640Z,38.9212
2024-04-18T22:58:34.108Z,38.9237
2024-04-18T23:08:54.194Z,38.9273
2024-04-18T23:19:15.282Z,38.9347
2024-04-18T23:29:35.495Z,38.9531
2024-04-18T23:39:55.338Z,38.9480
2024-04-18T23:50:15.832Z,38.9269
